Time,TemperatureF,DewpointF,PressureIn,WindDirection,WindDirectionDegrees,WindSpeedMPH,WindSpeedGustMPH,Humidity,HourlyPrecipIn,Conditions,Clouds,dailyrainin,SoftwareType,DateUTC
2013-02-03 00:00:00,16.6,12.9,30.08,NW,315,2.0,5.0,85,0.00,,,0.00,VWS V14.01,2013-02-03 05:00:00,
2013-02-03 00:05:00,16.4,12.7,30.07,NW,315,3.0,5.0,85,0.00,,,0.00,VWS V14.01,2013-02-03 05:05:00,
2013-02-03 00:10:00,16.1,12.4,30.07,NNW,338,2.0,5.0,85,0.00,,,0.00,VWS V14.01,2013-02-03 05:10:00,
2013-02-03 00:15:00,15.8,12.1,30.07,North,0,2.0,5.0,85,0.00,,,0.00,VWS V14.01,2013-02-03 05:15:00,
2013-02-03 00:20:00,15.6,11.9,30.07,North,0,2.0,5.0,85,0.00,,,0.00,VWS V14.01,2013-02-03 05:20:00,
2013-02-03 00:25:00,15.4,11.7,30.07,NNW,338,2.0,4.0,85,0.00,,,0.00,VWS V14.01,2013-02-03 05:25:00,
2013-02-03 00:30:00,15.3,11.6,30.07,NW,315,2.0,4.0,85,0.00,,,0.00,VWS V14.01,2013-02-03 05:30:00,
2013-02-03 00:35:00,15.3,11.6,30.07,NNW,338,1.0,5.0,85,0.00,,,0.00,VWS V14.01,2013-02-03 05:35:00,
2013-02-03 00:40:00,15.2,11.5,30.07,NNW,338,0.0,3.0,85,0.00,,,0.00,VWS V14.01,2013-02-03 05:40:00,
2013-02-03 00:45:00,14.9,11.2,30.07,NNW,338,1.0,3.0,85,0.00,,,0.00,VWS V14.01,2013-02-03 05:45:00,
2013-02-03 00:50:00,14.7,11.0,30.07,NNW,338,1.0,2.0,85,0.00,,,0.00,VWS V14.01,2013-02-03 05:50:00,
2013-02-03 00:55:00,14.6,11.2,30.06,NNW,338,1.0,3.0,86,0.00,,,0.00,VWS V14.01,2013-02-03 05:55:00,
2013-02-03 01:00:00,14.6,11.2,30.06,NW,315,2.0,5.0,86,0.00,,,0.00,VWS V14.01,2013-02-03 06:00:00,
2013-02-03 01:05:00,14.8,11.4,30.06,NNW,338,2.0,4.0,86,0.00,,,0.00,VWS V14.01,2013-02-03 06:05:00,
2013-02-03 01:10:00,14.7,11.3,30.06,North,0,1.0,4.0,86,0.00,,,0.00,VWS V14.01,2013-02-03 06:10:00,
2013-02-03 01:15:00,14.7,11.0,30.06,North,0,1.0,4.0,85,0.00,,,0.00,VWS V14.01,2013-02-03 06:15:00,
2013-02-03 01:20:00,14.5,11.1,30.06,North,0,2.0,3.0,86,0.00,,,0.00,VWS V14.01,2013-02-03 06:20:00,
2013-02-03 01:25:00,14.4,11.0,30.06,North,0,2.0,4.0,86,0.00,,,0.00,VWS V14.01,2013-02-03 06:25:00,
2013-02-03 01:30:00,14.5,10.8,30.06,NNW,338,1.0,3.0,85,0.00,,,0.00,VWS V14.01,2013-02-03 06:30:00,
2013-02-03 01:35:00,14.3,10.9,30.06,NNW,338,1.0,3.0,86,0.00,,,0.00,VWS V14.01,2013-02-03 06:35:00,
2013-02-03 01:40:00,14.2,10.8,30.06,NNW,338,2.0,3.0,86,0.00,,,0.00,VWS V14.01,2013-02-03 06:40:00,
2013-02-03 01:45:00,14.2,10.8,30.06,WNW,292,2.0,4.0,86,0.00,,,0.00,VWS V14.01,2013-02-03 06:45:00,
2013-02-03 01:50:00,14.2,10.8,30.06,WNW,292,2.0,3.0,86,0.00,,,0.00,VWS V14.01,2013-02-03 06:50:00,
2013-02-03 01:55:00,14.2,10.8,30.06,WNW,292,2.0,4.0,86,0.00,,,0.00,VWS V14.01,2013-02-03 06:55:00,
2013-02-03 02:00:00,14.3,10.6,30.06,WNW,292,2.0,3.0,85,0.00,,,0.00,VWS V14.01,2013-02-03 07:00:00,
2013-02-03 02:05:00,14.2,10.5,30.06,WNW,292,2.0,4.0,85,0.00,,,0.00,VWS V14.01,2013-02-03 07:05:00,
2013-02-03 02:10:00,14.0,10.3,30.06,WNW,292,2.0,4.0,85,0.00,,,0.00,VWS V14.01,2013-02-03 07:10:00,
2013-02-03 02:15:00,13.9,10.2,30.06,WNW,292,2.0,3.0,85,0.00,,,0.00,VWS V14.01,2013-02-03 07:15:00,
2013-02-03 02:20:00,13.7,10.0,30.06,WNW,292,2.0,3.0,85,0.00,,,0.00,VWS V14.01,2013-02-03 07:20:00,
2013-02-03 02:25:00,13.6,9.9,30.06,WNW,292,2.0,4.0,85,0.00,,,0.00,VWS V14.01,2013-02-03 07:25:00,
2013-02-03 02:30:00,13.5,9.8,30.06,WNW,292,2.0,4.0,85,0.00,,,0.00,VWS V14.01,2013-02-03 07:30:00,
2013-02-03 02:35:00,13.5,9.8,30.06,WNW,292,2.0,3.0,85,0.00,,,0.00,VWS V14.01,2013-02-03 07:35:00,
2013-02-03 02:40:00,13.3,9.6,30.06,WNW,292,2.0,3.0,85,0.00,,,0.00,VWS V14.01,2013-02-03 07:40:00,
2013-02-03 02:45:00,13.4,9.7,30.06,WNW,292,2.0,4.0,85,0.00,,,0.00,VWS V14.01,2013-02-03 07:45:00,
2013-02-03 02:50:00,13.4,9.7,30.06,WNW,292,2.0,4.0,85,0.00,,,0.00,VWS V14.01,2013-02-03 07:50:00,
2013-02-03 02:55:00,13.4,9.7,30.06,WNW,292,2.0,3.0,85,0.00,,,0.00,VWS V14.01,2013-02-03 07:55:00,
2013-02-03 03:00:00,13.3,9.6,30.05,WNW,292,2.0,3.0,85,0.00,,,0.00,VWS V14.01,2013-02-03 08:00:00,
2013-02-03 03:05:00,13.3,9.6,30.05,WNW,292,2.0,3.0,85,0.00,,,0.00,VWS V14.01,2013-02-03 08:05:00,
2013-02-03 03:10:00,13.2,9.6,30.05,WNW,292,2.0,4.0,85,0.00,,,0.00,VWS V14.01,2013-02-03 08:10:00,
2013-02-03 03:15:00,13.2,9.6,30.05,WNW,292,2.0,3.0,85,0.00,,,0.00,VWS V14.01,2013-02-03 08:15:00,
2013-02-03 03:20:00,13.0,9.4,30.05,WNW,292,2.0,3.0,85,0.00,,,0.00,VWS V14.01,2013-02-03 08:20:00,
2013-02-03 03:25:00,12.9,9.2,30.05,WNW,292,2.0,4.0,85,0.00,,,0.00,VWS V14.01,2013-02-03 08:25:00,
2013-02-03 03:30:00,12.9,9.2,30.05,WNW,292,2.0,4.0,85,0.00,,,0.00,VWS V14.01,2013-02-03 08:30:00,
2013-02-03 03:35:00,12.8,9.1,30.05,WNW,292,2.0,3.0,85,0.00,,,0.00,VWS V14.01,2013-02-03 08:35:00,
2013-02-03 03:40:00,12.6,9.0,30.05,WNW,292,2.0,4.0,85,0.00,,,0.00,VWS V14.01,2013-02-03 08:40:00,
2013-02-03 03:45:00,12.5,8.9,30.04,WNW,292,3.0,4.0,85,0.00,,,0.00,VWS V14.01,2013-02-03 08:45:00,
2013-02-03 03:50:00,12.6,9.0,30.04,WNW,292,2.0,3.0,85,0.00,,,0.00,VWS V14.01,2013-02-03 08:50:00,
2013-02-03 03:55:00,12.3,8.1,30.04,WNW,292,2.0,3.0,83,0.00,,,0.00,VWS V14.01,2013-02-03 08:55:00,
2013-02-03 04:00:00,11.4,7.2,30.04,WNW,292,0.0,2.0,83,0.00,,,0.00,VWS V14.01,2013-02-03 09:00:00,
2013-02-03 04:05:00,10.7,6.6,30.04,WNW,292,0.0,0.0,83,0.00,,,0.00,VWS V14.01,2013-02-03 09:05:00,
2013-02-03 04:10:00,10.1,6.2,30.04,WNW,292,1.0,2.0,84,0.00,,,0.00,VWS V14.01,2013-02-03 09:10:00,
2013-02-03 04:15:00,9.6,5.8,30.04,WNW,292,0.0,2.0,84,0.00,,,0.00,VWS V14.01,2013-02-03 09:15:00,
2013-02-03 04:20:00,9.3,5.4,30.04,WNW,292,0.0,1.0,84,0.00,,,0.00,VWS V14.01,2013-02-03 09:20:00,
2013-02-03 04:25:00,9.0,5.4,30.04,WNW,292,0.0,0.0,85,0.00,,,0.00,VWS V14.01,2013-02-03 09:25:00,
2013-02-03 04:30:00,8.9,5.3,30.03,WNW,292,0.0,1.0,85,0.00,,,0.00,VWS V14.01,2013-02-03 09:30:00,
2013-02-03 04:35:00,8.7,5.1,30.03,WNW,292,0.0,1.0,85,0.00,,,0.00,VWS V14.01,2013-02-03 09:35:00,
2013-02-03 04:40:00,8.5,4.9,30.03,WNW,292,0.0,2.0,85,0.00,,,0.00,VWS V14.01,2013-02-03 09:40:00,
2013-02-03 04:45:00,8.3,4.7,30.03,WNW,292,0.0,1.0,85,0.00,,,0.00,VWS V14.01,2013-02-03 09:45:00,
2013-02-03 04:50:00,8.1,4.5,30.03,WNW,292,0.0,0.0,85,0.00,,,0.00,VWS V14.01,2013-02-03 09:50:00,
2013-02-03 04:55:00,8.0,4.7,30.03,WNW,292,0.0,0.0,86,0.00,,,0.00,VWS V14.01,2013-02-03 09:55:00,
2013-02-03 05:00:00,7.8,4.2,30.03,WNW,292,0.0,0.0,85,0.00,,,0.00,VWS V14.01,2013-02-03 10:00:00,
2013-02-03 05:05:00,7.6,4.3,30.03,WNW,292,0.0,0.0,86,0.00,,,0.00,VWS V14.01,2013-02-03 10:05:00,
2013-02-03 05:10:00,7.4,4.1,30.03,WNW,292,0.0,0.0,86,0.00,,,0.00,VWS V14.01,2013-02-03 10:10:00,
2013-02-03 05:15:00,7.4,4.1,30.03,WNW,292,0.0,0.0,86,0.00,,,0.00,VWS V14.01,2013-02-03 10:15:00,
2013-02-03 05:20:00,7.3,4.0,30.03,WNW,292,0.0,0.0,86,0.00,,,0.00,VWS V14.01,2013-02-03 10:20:00,
2013-02-03 05:25:00,7.3,4.0,30.02,WNW,292,0.0,0.0,86,0.00,,,0.00,VWS V14.01,2013-02-03 10:25:00,
2013-02-03 05:30:00,7.3,4.0,30.02,WNW,292,0.0,0.0,86,0.00,,,0.00,VWS V14.01,2013-02-03 10:30:00,
2013-02-03 05:35:00,7.3,4.0,30.02,WNW,292,0.0,0.0,86,0.00,,,0.00,VWS V14.01,2013-02-03 10:35:00,
2013-02-03 05:40:00,7.2,3.9,30.02,WNW,292,0.0,1.0,86,0.00,,,0.00,VWS V14.01,2013-02-03 10:40:00,
2013-02-03 05:45:00,7.1,3.8,30.02,WNW,292,0.0,1.0,86,0.00,,,0.00,VWS V14.01,2013-02-03 10:45:00,
2013-02-03 05:50:00,7.0,3.7,30.02,WNW,292,0.0,0.0,86,0.00,,,0.00,VWS V14.01,2013-02-03 10:50:00,
2013-02-03 05:55:00,6.9,3.6,30.02,WNW,292,0.0,0.0,86,0.00,,,0.00,VWS V14.01,2013-02-03 10:55:00,
2013-02-03 06:00:00,6.9,3.6,30.02,WNW,292,0.0,1.0,86,0.00,,,0.00,VWS V14.01,2013-02-03 11:00:00,
2013-02-03 06:05:00,6.9,3.6,30.02,WNW,292,0.0,0.0,86,0.00,,,0.00,VWS V14.01,2013-02-03 11:05:00,
2013-02-03 06:10:00,6.9,3.6,30.01,WNW,292,0.0,1.0,86,0.00,,,0.00,VWS V14.01,2013-02-03 11:10:00,
2013-02-03 06:15:00,6.8,3.5,30.01,WNW,292,0.0,1.0,86,0.00,,,0.00,VWS V14.01,2013-02-03 11:15:00,
2013-02-03 06:20:00,6.8,3.5,30.01,WNW,292,0.0,0.0,86,0.00,,,0.00,VWS V14.01,2013-02-03 11:20:00,
2013-02-03 06:25:00,6.7,3.4,30.01,WNW,292,0.0,0.0,86,0.00,,,0.00,VWS V14.01,2013-02-03 11:25:00,
2013-02-03 06:30:00,6.7,3.4,30.01,WNW,292,0.0,0.0,86,0.00,,,0.00,VWS V14.01,2013-02-03 11:30:00,
2013-02-03 06:35:00,6.6,3.3,30.01,WNW,292,0.0,0.0,86,0.00,,,0.00,VWS V14.01,2013-02-03 11:35:00,
2013-02-03 06:40:00,6.6,3.3,30.01,WNW,292,0.0,0.0,86,0.00,,,0.00,VWS V14.01,2013-02-03 11:40:00,
2013-02-03 06:45:00,6.6,3.3,30.01,WNW,292,0.0,0.0,86,0.00,,,0.00,VWS V14.01,2013-02-03 11:45:00,
2013-02-03 06:50:00,6.6,3.3,30.01,WNW,292,0.0,0.0,86,0.00,,,0.00,VWS V14.01,2013-02-03 11:50:00,
2013-02-03 06:55:00,6.6,3.3,30.01,WNW,292,0.0,0.0,86,0.00,,,0.00,VWS V14.01,2013-02-03 11:55:00,
2013-02-03 07:00:00,6.5,3.2,30.02,WNW,292,0.0,0.0,86,0.00,,,0.00,VWS V14.01,2013-02-03 12:00:00,
2013-02-03 07:05:00,6.4,3.1,30.02,WNW,292,0.0,0.0,86,0.00,,,0.00,VWS V14.01,2013-02-03 12:05:00,
2013-02-03 07:10:00,6.5,3.2,30.02,WNW,292,0.0,0.0,86,0.00,,,0.00,VWS V14.01,2013-02-03 12:10:00,
2013-02-03 07:15:00,6.7,3.7,30.02,WNW,292,0.0,0.0,87,0.00,,,0.00,VWS V14.01,2013-02-03 12:15:00,
2013-02-03 07:20:00,6.8,3.5,30.02,WNW,292,0.0,0.0,86,0.00,,,0.00,VWS V14.01,2013-02-03 12:20:00,
2013-02-03 07:25:00,6.8,3.8,30.02,WNW,292,0.0,0.0,87,0.00,,,0.00,VWS V14.01,2013-02-03 12:25:00,
2013-02-03 07:30:00,6.9,3.9,30.02,WNW,292,0.0,0.0,87,0.00,,,0.00,VWS V14.01,2013-02-03 12:30:00,
2013-02-03 07:35:00,7.0,3.7,30.02,WNW,292,0.0,0.0,86,0.00,,,0.00,VWS V14.01,2013-02-03 12:35:00,
2013-02-03 07:40:00,7.0,4.0,30.02,WNW,292,0.0,0.0,87,0.00,,,0.00,VWS V14.01,2013-02-03 12:40:00,
2013-02-03 07:45:00,7.1,4.1,30.02,WNW,292,0.0,0.0,87,0.00,,,0.00,VWS V14.01,2013-02-03 12:45:00,
2013-02-03 07:50:00,7.1,4.1,30.02,WNW,292,0.0,0.0,87,0.00,,,0.00,VWS V14.01,2013-02-03 12:50:00,
2013-02-03 07:55:00,7.1,3.8,30.02,WNW,292,0.0,0.0,86,0.00,,,0.00,VWS V14.01,2013-02-03 12:55:00,
2013-02-03 08:00:00,7.1,4.1,30.02,WNW,292,0.0,0.0,87,0.00,,,0.00,VWS V14.01,2013-02-03 13:00:00,
2013-02-03 08:05:00,7.2,4.2,30.02,WNW,292,0.0,0.0,87,0.00,,,0.00,VWS V14.01,2013-02-03 13:05:00,
2013-02-03 08:10:00,7.3,4.2,30.02,WNW,292,0.0,0.0,87,0.00,,,0.00,VWS V14.01,2013-02-03 13:10:00,
2013-02-03 08:15:00,7.4,4.3,30.02,WNW,292,0.0,0.0,87,0.00,,,0.00,VWS V14.01,2013-02-03 13:15:00,
2013-02-03 08:20:00,7.6,4.6,30.02,WNW,292,0.0,0.0,87,0.00,,,0.00,VWS V14.01,2013-02-03 13:20:00,
2013-02-03 08:25:00,7.8,4.7,30.01,WNW,292,0.0,0.0,87,0.00,,,0.00,VWS V14.01,2013-02-03 13:25:00,
2013-02-03 08:30:00,8.1,5.0,30.01,WNW,292,0.0,1.0,87,0.00,,,0.00,VWS V14.01,2013-02-03 13:30:00,
2013-02-03 08:35:00,8.5,5.4,30.01,WNW,292,0.0,0.0,87,0.00,,,0.00,VWS V14.01,2013-02-03 13:35:00,
2013-02-03 08:40:00,8.8,5.7,30.01,WNW,292,0.0,0.0,87,0.00,,,0.00,VWS V14.01,2013-02-03 13:40:00,
2013-02-03 08:45:00,9.0,5.9,30.01,WNW,292,0.0,0.0,87,0.00,,,0.00,VWS V14.01,2013-02-03 13:45:00,
2013-02-03 08:50:00,9.2,6.1,30.01,WNW,292,0.0,0.0,87,0.00,,,0.00,VWS V14.01,2013-02-03 13:50:00,
2013-02-03 08:55:00,9.5,6.4,30.01,WNW,292,0.0,0.0,87,0.00,,,0.00,VWS V14.01,2013-02-03 13:55:00,
2013-02-03 09:00:00,9.8,6.7,30.01,WNW,292,0.0,0.0,87,0.00,,,0.00,VWS V14.01,2013-02-03 14:00:00,
2013-02-03 09:05:00,10.1,7.0,30.01,WNW,292,0.0,0.0,87,0.00,,,0.00,VWS V14.01,2013-02-03 14:05:00,
2013-02-03 09:10:00,10.6,7.8,30.01,WNW,292,0.0,0.0,88,0.00,,,0.00,VWS V14.01,2013-02-03 14:10:00,
2013-02-03 09:15:00,11.2,8.4,30.01,WNW,292,0.0,0.0,88,0.00,,,0.00,VWS V14.01,2013-02-03 14:15:00,
2013-02-03 09:20:00,12.2,9.3,30.01,WNW,292,0.0,0.0,88,0.00,,,0.00,VWS V14.01,2013-02-03 14:20:00,
2013-02-03 09:25:00,13.6,10.7,30.01,WNW,292,0.0,0.0,88,0.00,,,0.00,VWS V14.01,2013-02-03 14:25:00,
2013-02-03 09:30:00,15.2,12.0,30.01,WNW,292,0.0,0.0,87,0.00,,,0.00,VWS V14.01,2013-02-03 14:30:00,
2013-02-03 09:35:00,16.5,12.5,30.01,WNW,292,0.0,0.0,84,0.00,,,0.00,VWS V14.01,2013-02-03 14:35:00,
2013-02-03 09:40:00,17.3,12.8,30.01,WNW,292,0.0,1.0,82,0.00,,,0.00,VWS V14.01,2013-02-03 14:40:00,
2013-02-03 09:45:00,17.6,12.5,30.01,WNW,292,0.0,0.0,80,0.00,,,0.00,VWS V14.01,2013-02-03 14:45:00,
2013-02-03 09:50:00,17.9,12.5,30.01,WNW,292,0.0,0.0,79,0.00,,,0.00,VWS V14.01,2013-02-03 14:50:00,
2013-02-03 09:55:00,17.9,12.2,30.01,WNW,292,0.0,2.0,78,0.00,,,0.00,VWS V14.01,2013-02-03 14:55:00,
2013-02-03 10:00:00,18.1,11.8,30.01,WNW,292,1.0,2.0,76,0.00,,,0.00,VWS V14.01,2013-02-03 15:00:00,
2013-02-03 10:05:00,18.5,11.9,30.01,WNW,292,0.0,2.0,75,0.00,,,0.00,VWS V14.01,2013-02-03 15:05:00,
2013-02-03 10:10:00,18.8,12.2,30.01,WNW,292,0.0,1.0,75,0.00,,,0.00,VWS V14.01,2013-02-03 15:10:00,
2013-02-03 10:15:00,19.5,11.6,30.00,WNW,292,1.0,5.0,71,0.00,,,0.00,VWS V14.01,2013-02-03 15:15:00,
2013-02-03 10:20:00,19.7,11.8,30.00,SE,135,1.0,3.0,71,0.00,,,0.00,VWS V14.01,2013-02-03 15:20:00,
2013-02-03 10:25:00,19.5,11.6,30.00,SE,135,2.0,4.0,71,0.00,,,0.00,VWS V14.01,2013-02-03 15:25:00,
2013-02-03 10:30:00,19.4,13.1,30.00,ESE,112,1.0,4.0,76,0.00,,,0.00,VWS V14.01,2013-02-03 15:30:00,
2013-02-03 10:35:00,19.7,12.1,30.00,ESE,112,0.0,3.0,72,0.00,,,0.00,VWS V14.01,2013-02-03 15:35:00,
2013-02-03 10:40:00,20.4,11.9,29.99,ESE,112,2.0,5.0,69,0.00,,,0.00,VWS V14.01,2013-02-03 15:40:00,
2013-02-03 10:45:00,20.3,11.8,29.99,ESE,112,0.0,3.0,69,0.00,,,0.00,VWS V14.01,2013-02-03 15:45:00,
2013-02-03 10:50:00,20.6,11.7,29.99,ESE,112,2.0,6.0,68,0.00,,,0.00,VWS V14.01,2013-02-03 15:50:00,
2013-02-03 10:55:00,20.4,11.9,29.99,East,90,2.0,4.0,69,0.00,,,0.00,VWS V14.01,2013-02-03 15:55:00,
2013-02-03 11:00:00,20.7,12.1,29.98,East,90,1.0,3.0,69,0.00,,,0.00,VWS V14.01,2013-02-03 16:00:00,
2013-02-03 11:05:00,21.0,12.4,29.98,East,90,3.0,4.0,69,0.00,,,0.00,VWS V14.01,2013-02-03 16:05:00,
2013-02-03 11:10:00,20.7,12.5,29.98,East,90,1.0,3.0,70,0.00,,,0.00,VWS V14.01,2013-02-03 16:10:00,
2013-02-03 11:15:00,21.0,12.1,29.97,East,90,1.0,4.0,68,0.00,,,0.00,VWS V14.01,2013-02-03 16:15:00,
2013-02-03 11:20:00,21.4,12.2,29.97,East,90,2.0,4.0,67,0.00,,,0.00,VWS V14.01,2013-02-03 16:20:00,
2013-02-03 11:25:00,21.7,12.4,29.97,East,90,0.0,3.0,67,0.00,,,0.00,VWS V14.01,2013-02-03 16:25:00,
2013-02-03 11:30:00,22.0,12.4,29.96,East,90,2.0,5.0,66,0.00,,,0.00,VWS V14.01,2013-02-03 16:30:00,
2013-02-03 11:35:00,21.8,12.5,29.96,East,90,1.0,5.0,67,0.00,,,0.00,VWS V14.01,2013-02-03 16:35:00,
2013-02-03 11:40:00,22.3,13.0,29.95,SSW,202,2.0,5.0,67,0.00,,,0.00,VWS V14.01,2013-02-03 16:40:00,
2013-02-03 11:45:00,22.6,13.0,29.95,WSW,248,1.0,4.0,66,0.00,,,0.00,VWS V14.01,2013-02-03 16:45:00,
2013-02-03 11:50:00,22.8,12.8,29.94,WSW,248,0.0,0.0,65,0.00,,,0.00,VWS V14.01,2013-02-03 16:50:00,
2013-02-03 11:55:00,23.1,13.4,29.94,WSW,248,1.0,4.0,66,0.00,,,0.00,VWS V14.01,2013-02-03 16:55:00,
2013-02-03 12:00:00,23.1,13.1,29.94,WSW,248,2.0,6.0,65,0.00,,,0.00,VWS V14.01,2013-02-03 17:00:00,
2013-02-03 12:05:00,22.7,13.4,29.94,ESE,112,1.0,3.0,67,0.00,,,0.00,VWS V14.01,2013-02-03 17:05:00,
2013-02-03 12:10:00,22.6,13.0,29.93,West,270,0.0,3.0,66,0.00,,,0.00,VWS V14.01,2013-02-03 17:10:00,
2013-02-03 12:15:00,22.8,13.2,29.93,SW,225,2.0,5.0,66,0.00,,,0.00,VWS V14.01,2013-02-03 17:15:00,
2013-02-03 12:20:00,22.9,12.9,29.92,SSW,202,0.0,3.0,65,0.00,,,0.00,VWS V14.01,2013-02-03 17:20:00,
2013-02-03 12:25:00,23.2,13.2,29.92,SSW,202,1.0,6.0,65,0.00,,,0.00,VWS V14.01,2013-02-03 17:25:00,
2013-02-03 12:30:00,23.8,13.1,29.92,WSW,248,1.0,4.0,63,0.00,,,0.00,VWS V14.01,2013-02-03 17:30:00,
2013-02-03 12:35:00,23.9,13.1,29.91,ENE,68,2.0,3.0,63,0.00,,,0.00,VWS V14.01,2013-02-03 17:35:00,
2013-02-03 12:40:00,23.7,13.0,29.91,East,90,3.0,5.0,63,0.00,,,0.00,VWS V14.01,2013-02-03 17:40:00,
2013-02-03 12:45:00,23.3,12.9,29.91,SW,225,2.0,8.0,64,0.00,,,0.00,VWS V14.01,2013-02-03 17:45:00,
2013-02-03 12:50:00,23.4,13.0,29.91,SW,225,1.0,9.0,64,0.00,,,0.00,VWS V14.01,2013-02-03 17:50:00,
2013-02-03 12:55:00,23.6,13.2,29.91,ENE,68,3.0,6.0,64,0.00,,,0.00,VWS V14.01,2013-02-03 17:55:00,
2013-02-03 13:00:00,23.8,13.1,29.90,ESE,112,4.0,7.0,63,0.00,,,0.00,VWS V14.01,2013-02-03 18:00:00,
2013-02-03 13:05:00,23.7,13.0,29.90,ESE,112,3.0,7.0,63,0.00,,,0.00,VWS V14.01,2013-02-03 18:05:00,
2013-02-03 13:10:00,23.6,13.2,29.90,ESE,112,2.0,7.0,64,0.00,,,0.00,VWS V14.01,2013-02-03 18:10:00,
2013-02-03 13:15:00,23.8,13.4,29.89,SW,225,2.0,5.0,64,0.00,,,0.00,VWS V14.01,2013-02-03 18:15:00,
2013-02-03 13:20:00,24.0,13.2,29.89,SE,135,2.0,6.0,63,0.00,,,0.00,VWS V14.01,2013-02-03 18:20:00,
2013-02-03 13:25:00,24.0,13.6,29.89,ESE,112,2.0,6.0,64,0.00,,,0.00,VWS V14.01,2013-02-03 18:25:00,
2013-02-03 13:30:00,24.0,13.2,29.88,East,90,3.0,5.0,63,0.00,,,0.00,VWS V14.01,2013-02-03 18:30:00,
2013-02-03 13:35:00,23.8,13.4,29.88,SE,135,3.0,6.0,64,0.00,,,0.00,VWS V14.01,2013-02-03 18:35:00,
2013-02-03 13:40:00,23.9,13.5,29.88,WSW,248,1.0,3.0,64,0.00,,,0.00,VWS V14.01,2013-02-03 18:40:00,
2013-02-03 13:45:00,24.3,13.5,29.88,SSE,158,1.0,5.0,63,0.00,,,0.00,VWS V14.01,2013-02-03 18:45:00,
2013-02-03 13:50:00,24.8,13.6,29.88,SSW,202,1.0,4.0,62,0.00,,,0.00,VWS V14.01,2013-02-03 18:50:00,
2013-02-03 13:55:00,25.3,13.8,29.87,SSW,202,2.0,4.0,61,0.00,,,0.00,VWS V14.01,2013-02-03 18:55:00,
2013-02-03 14:00:00,25.7,14.1,29.87,East,90,2.0,5.0,61,0.00,,,0.00,VWS V14.01,2013-02-03 19:00:00,
2013-02-03 14:05:00,25.7,14.1,29.86,ENE,68,2.0,5.0,61,0.00,,,0.00,VWS V14.01,2013-02-03 19:05:00,
2013-02-03 14:10:00,25.5,13.6,29.86,ESE,112,3.0,6.0,60,0.00,,,0.00,VWS V14.01,2013-02-03 19:10:00,
2013-02-03 14:15:00,25.2,12.9,29.86,SW,225,1.0,4.0,59,0.00,,,0.00,VWS V14.01,2013-02-03 19:15:00,
2013-02-03 14:20:00,25.3,13.4,29.86,South,180,3.0,5.0,60,0.00,,,0.00,VWS V14.01,2013-02-03 19:20:00,
2013-02-03 14:25:00,25.3,13.4,29.86,East,90,4.0,6.0,60,0.00,,,0.00,VWS V14.01,2013-02-03 19:25:00,
2013-02-03 14:30:00,25.0,12.7,29.86,ESE,112,3.0,6.0,59,0.00,,,0.00,VWS V14.01,2013-02-03 19:30:00,
2013-02-03 14:35:00,24.7,12.4,29.86,NE,45,3.0,5.0,59,0.00,,,0.00,VWS V14.01,2013-02-03 19:35:00,
2013-02-03 14:40:00,24.7,13.2,29.85,SW,225,1.0,2.0,61,0.00,,,0.00,VWS V14.01,2013-02-03 19:40:00,
2013-02-03 14:45:00,25.3,13.4,29.85,SW,225,1.0,5.0,60,0.00,,,0.00,VWS V14.01,2013-02-03 19:45:00,
2013-02-03 14:50:00,25.7,13.4,29.85,West,270,0.0,2.0,59,0.00,,,0.00,VWS V14.01,2013-02-03 19:50:00,
2013-02-03 14:55:00,26.0,13.3,29.86,East,90,1.0,4.0,58,0.00,,,0.00,VWS V14.01,2013-02-03 19:55:00,
2013-02-03 15:00:00,25.7,13.0,29.86,SW,225,1.0,3.0,58,0.00,,,0.00,VWS V14.01,2013-02-03 20:00:00,
2013-02-03 15:05:00,25.6,12.5,29.85,SSE,158,2.0,5.0,57,0.00,,,0.00,VWS V14.01,2013-02-03 20:05:00,
2013-02-03 15:10:00,25.4,12.3,29.85,South,180,1.0,3.0,57,0.00,,,0.00,VWS V14.01,2013-02-03 20:10:00,
2013-02-03 15:15:00,25.3,13.0,29.85,South,180,1.0,4.0,59,0.00,,,0.00,VWS V14.01,2013-02-03 20:15:00,
2013-02-03 15:20:00,25.6,12.9,29.85,South,180,0.0,3.0,58,0.00,,,0.00,VWS V14.01,2013-02-03 20:20:00,
2013-02-03 15:25:00,25.5,12.4,29.85,South,180,0.0,2.0,57,0.00,,,0.00,VWS V14.01,2013-02-03 20:25:00,
2013-02-03 15:30:00,25.6,13.3,29.85,ESE,112,3.0,6.0,59,0.00,,,0.00,VWS V14.01,2013-02-03 20:30:00,
2013-02-03 15:35:00,25.8,13.5,29.85,ESE,112,0.0,3.0,59,0.00,,,0.00,VWS V14.01,2013-02-03 20:35:00,
2013-02-03 15:40:00,26.2,13.4,29.84,East,90,1.0,4.0,58,0.00,,,0.00,VWS V14.01,2013-02-03 20:40:00,
2013-02-03 15:45:00,26.4,13.6,29.84,East,90,2.0,5.0,58,0.00,,,0.00,VWS V14.01,2013-02-03 20:45:00,
2013-02-03 15:50:00,26.3,13.6,29.84,SSW,202,0.0,3.0,58,0.00,,,0.00,VWS V14.01,2013-02-03 20:50:00,
2013-02-03 15:55:00,26.1,13.8,29.84,SW,225,1.0,4.0,59,0.00,,,0.00,VWS V14.01,2013-02-03 20:55:00,
2013-02-03 16:00:00,25.9,13.2,29.84,SSE,158,2.0,4.0,58,0.00,,,0.00,VWS V14.01,2013-02-03 21:00:00,
2013-02-03 16:05:00,25.5,13.2,29.84,ESE,112,1.0,3.0,59,0.00,,,0.00,VWS V14.01,2013-02-03 21:05:00,
2013-02-03 16:10:00,25.4,13.1,29.84,ESE,112,1.0,3.0,59,0.00,,,0.00,VWS V14.01,2013-02-03 21:10:00,
2013-02-03 16:15:00,25.5,12.8,29.84,ESE,112,0.0,1.0,58,0.00,,,0.00,VWS V14.01,2013-02-03 21:15:00,
2013-02-03 16:20:00,25.7,13.0,29.83,ESE,112,0.0,2.0,58,0.00,,,0.00,VWS V14.01,2013-02-03 21:20:00,
2013-02-03 16:25:00,25.9,12.4,29.83,ESE,112,1.0,3.0,56,0.00,,,0.00,VWS V14.01,2013-02-03 21:25:00,
2013-02-03 16:30:00,25.7,12.6,29.83,ESE,112,1.0,3.0,57,0.00,,,0.00,VWS V14.01,2013-02-03 21:30:00,
2013-02-03 16:35:00,25.4,14.2,29.83,ESE,112,1.0,3.0,62,0.00,,,0.00,VWS V14.01,2013-02-03 21:35:00,
2013-02-03 16:40:00,25.1,12.4,29.83,ESE,112,1.0,3.0,58,0.00,,,0.00,VWS V14.01,2013-02-03 21:40:00,
2013-02-03 16:45:00,24.9,13.0,29.83,ESE,112,0.0,1.0,60,0.00,,,0.00,VWS V14.01,2013-02-03 21:45:00,
2013-02-03 16:50:00,24.7,12.0,29.83,ESE,112,0.0,0.0,58,0.00,,,0.00,VWS V14.01,2013-02-03 21:50:00,
2013-02-03 16:55:00,24.5,11.9,29.83,ESE,112,0.0,0.0,58,0.00,,,0.00,VWS V14.01,2013-02-03 21:55:00,
2013-02-03 17:00:00,24.2,11.9,29.83,ESE,112,0.0,0.0,59,0.00,,,0.00,VWS V14.01,2013-02-03 22:00:00,
2013-02-03 17:05:00,23.9,12.1,29.83,ESE,112,0.0,0.0,60,0.00,,,0.00,VWS V14.01,2013-02-03 22:05:00,
2013-02-03 17:10:00,23.4,11.9,29.83,ESE,112,0.0,0.0,61,0.00,,,0.00,VWS V14.01,2013-02-03 22:10:00,
2013-02-03 17:15:00,23.0,12.3,29.83,ESE,112,0.0,0.0,63,0.00,,,0.00,VWS V14.01,2013-02-03 22:15:00,
2013-02-03 17:20:00,22.6,12.3,29.83,ESE,112,0.0,0.0,64,0.00,,,0.00,VWS V14.01,2013-02-03 22:20:00,
2013-02-03 17:25:00,22.1,12.5,29.82,ESE,112,0.0,1.0,66,0.00,,,0.00,VWS V14.01,2013-02-03 22:25:00,
2013-02-03 17:30:00,21.6,12.4,29.83,ESE,112,0.0,2.0,67,0.00,,,0.00,VWS V14.01,2013-02-03 22:30:00,
2013-02-03 17:35:00,21.3,12.4,29.83,ESE,112,0.0,1.0,68,0.00,,,0.00,VWS V14.01,2013-02-03 22:35:00,
2013-02-03 17:40:00,21.0,12.1,29.83,ESE,112,0.0,1.0,68,0.00,,,0.00,VWS V14.01,2013-02-03 22:40:00,
2013-02-03 17:45:00,20.7,12.5,29.83,ESE,112,1.0,2.0,70,0.00,,,0.00,VWS V14.01,2013-02-03 22:45:00,
2013-02-03 17:50:00,20.5,12.3,29.83,ESE,112,1.0,2.0,70,0.00,,,0.00,VWS V14.01,2013-02-03 22:50:00,
2013-02-03 17:55:00,20.3,12.4,29.83,ESE,112,1.0,2.0,71,0.00,,,0.00,VWS V14.01,2013-02-03 22:55:00,
2013-02-03 18:00:00,20.3,12.7,29.83,ESE,112,1.0,2.0,72,0.00,,,0.00,VWS V14.01,2013-02-03 23:00:00,
2013-02-03 18:05:00,20.5,12.9,29.83,ESE,112,1.0,2.0,72,0.00,,,0.00,VWS V14.01,2013-02-03 23:05:00,
2013-02-03 18:10:00,20.7,13.1,29.83,ESE,112,0.0,1.0,72,0.00,,,0.00,VWS V14.01,2013-02-03 23:10:00,
2013-02-03 18:15:00,20.9,13.3,29.82,ESE,112,0.0,2.0,72,0.00,,,0.00,VWS V14.01,2013-02-03 23:15:00,
2013-02-03 18:20:00,21.1,13.8,29.82,ESE,112,0.0,0.0,73,0.00,,,0.00,VWS V14.01,2013-02-03 23:20:00,
2013-02-03 18:25:00,21.3,14.0,29.82,North,0,0.0,0.0,73,0.00,,,0.00,VWS V14.01,2013-02-03 23:25:00,
2013-02-03 18:30:00,21.5,14.2,29.82,North,0,0.0,0.0,73,0.00,,,0.00,VWS V14.01,2013-02-03 23:30:00,
2013-02-03 18:33:00,21.5,14.2,29.82,ESE,119,0.0,0.0,73,0.00,,,0.00,VWS V14.01,2013-02-03 23:33:00,
2013-02-03 18:34:00,21.5,14.2,29.82,ESE,118,0.0,0.0,73,0.00,,,0.00,VWS V14.01,2013-02-03 23:34:00,
2013-02-03 18:35:00,21.5,14.5,29.82,North,0,0.0,0.0,74,0.00,,,0.00,VWS V14.01,2013-02-03 23:35:00,
2013-02-03 18:40:00,21.5,14.5,29.82,North,0,0.0,0.0,74,0.00,,,0.00,VWS V14.01,2013-02-03 23:40:00,
2013-02-03 18:45:00,21.6,15.2,29.82,North,0,0.0,0.0,76,0.00,,,0.00,VWS V14.01,2013-02-03 23:45:00,
2013-02-03 18:50:00,21.7,15.0,29.82,North,0,0.0,0.0,75,0.00,,,0.00,VWS V14.01,2013-02-03 23:50:00,
2013-02-03 18:55:00,21.7,15.0,29.82,North,0,0.0,0.0,75,0.00,,,0.00,VWS V14.01,2013-02-03 23:55:00,
2013-02-03 19:00:00,21.7,15.3,29.82,North,0,0.0,0.0,76,0.00,,,0.00,VWS V14.01,2013-02-04 00:00:00,
2013-02-03 19:05:00,21.7,15.0,29.82,North,0,0.0,0.0,75,0.00,,,0.00,VWS V14.01,2013-02-04 00:05:00,
2013-02-03 19:10:00,21.6,15.2,29.82,North,0,0.0,0.0,76,0.00,,,0.00,VWS V14.01,2013-02-04 00:10:00,
2013-02-03 19:15:00,21.6,15.2,29.82,North,0,0.0,0.0,76,0.00,,,0.00,VWS V14.01,2013-02-04 00:15:00,
2013-02-03 19:20:00,21.6,15.2,29.82,North,0,0.0,0.0,76,0.00,,,0.00,VWS V14.01,2013-02-04 00:20:00,
2013-02-03 19:25:00,21.6,15.2,29.81,North,0,0.0,0.0,76,0.00,,,0.00,VWS V14.01,2013-02-04 00:25:00,
2013-02-03 19:30:00,21.7,15.3,29.81,North,0,0.0,0.0,76,0.00,,,0.00,VWS V14.01,2013-02-04 00:30:00,
2013-02-03 19:35:00,21.7,15.3,29.81,North,0,0.0,0.0,76,0.00,,,0.00,VWS V14.01,2013-02-04 00:35:00,
2013-02-03 19:40:00,21.7,15.3,29.81,North,0,0.0,0.0,76,0.00,,,0.00,VWS V14.01,2013-02-04 00:40:00,
2013-02-03 19:45:00,21.7,15.6,29.81,North,0,0.0,0.0,77,0.00,,,0.00,VWS V14.01,2013-02-04 00:45:00,
2013-02-03 19:50:00,21.7,15.3,29.82,North,0,0.0,0.0,76,0.00,,,0.00,VWS V14.01,2013-02-04 00:50:00,
2013-02-03 19:55:00,21.6,15.2,29.81,North,0,0.0,0.0,76,0.00,,,0.00,VWS V14.01,2013-02-04 00:55:00,
2013-02-03 20:00:00,21.4,15.0,29.81,North,0,0.0,0.0,76,0.00,,,0.00,VWS V14.01,2013-02-04 01:00:00,
2013-02-03 20:05:00,21.2,14.8,29.81,North,0,0.0,0.0,76,0.00,,,0.00,VWS V14.01,2013-02-04 01:05:00,
2013-02-03 20:10:00,20.8,14.4,29.81,North,0,0.0,0.0,76,0.00,,,0.00,VWS V14.01,2013-02-04 01:10:00,
2013-02-03 20:15:00,20.6,14.6,29.81,North,0,0.0,0.0,77,0.00,,,0.00,VWS V14.01,2013-02-04 01:15:00,
2013-02-03 20:20:00,20.5,14.4,29.81,North,0,0.0,0.0,77,0.00,,,0.00,VWS V14.01,2013-02-04 01:20:00,
2013-02-03 20:25:00,20.3,14.3,29.81,North,0,0.0,0.0,77,0.00,,,0.00,VWS V14.01,2013-02-04 01:25:00,
2013-02-03 20:30:00,20.3,14.0,29.82,North,0,0.0,0.0,76,0.00,,,0.00,VWS V14.01,2013-02-04 01:30:00,
2013-02-03 20:35:00,20.2,13.6,29.81,North,0,0.0,0.0,75,0.00,,,0.00,VWS V14.01,2013-02-04 01:35:00,
2013-02-03 20:40:00,19.9,13.3,29.82,North,0,0.0,0.0,75,0.00,,,0.00,VWS V14.01,2013-02-04 01:40:00,
2013-02-03 20:45:00,19.7,13.1,29.82,North,0,0.0,0.0,75,0.00,,,0.00,VWS V14.01,2013-02-04 01:45:00,
2013-02-03 20:50:00,19.6,13.0,29.82,North,0,0.0,0.0,75,0.00,,,0.00,VWS V14.01,2013-02-04 01:50:00,
2013-02-03 20:55:00,19.2,12.9,29.82,North,0,0.0,0.0,76,0.00,,,0.00,VWS V14.01,2013-02-04 01:55:00,
2013-02-03 21:00:00,19.0,12.7,29.82,North,0,0.0,0.0,76,0.00,,,0.00,VWS V14.01,2013-02-04 02:00:00,
2013-02-03 21:05:00,18.9,12.6,29.82,North,0,0.0,0.0,76,0.00,,,0.00,VWS V14.01,2013-02-04 02:05:00,
2013-02-03 21:10:00,18.7,12.4,29.82,North,0,0.0,0.0,76,0.00,,,0.00,VWS V14.01,2013-02-04 02:10:00,
2013-02-03 21:15:00,18.6,12.6,29.82,North,0,0.0,0.0,77,0.00,,,0.00,VWS V14.01,2013-02-04 02:15:00,
2013-02-03 21:20:00,18.4,12.4,29.82,North,0,0.0,0.0,77,0.00,,,0.00,VWS V14.01,2013-02-04 02:20:00,
2013-02-03 21:25:00,18.4,12.4,29.81,North,0,0.0,0.0,77,0.00,,,0.00,VWS V14.01,2013-02-04 02:25:00,
2013-02-03 21:30:00,18.4,12.7,29.82,North,0,0.0,0.0,78,0.00,,,0.00,VWS V14.01,2013-02-04 02:30:00,
2013-02-03 21:35:00,18.5,12.8,29.82,North,0,0.0,0.0,78,0.00,,,0.00,VWS V14.01,2013-02-04 02:35:00,
2013-02-03 21:40:00,18.6,13.2,29.82,North,0,0.0,0.0,79,0.00,,,0.00,VWS V14.01,2013-02-04 02:40:00,
2013-02-03 21:45:00,18.8,13.4,29.81,North,0,0.0,0.0,79,0.00,,,0.00,VWS V14.01,2013-02-04 02:45:00,
2013-02-03 21:50:00,18.9,13.5,29.81,North,0,0.0,0.0,79,0.00,,,0.00,VWS V14.01,2013-02-04 02:50:00,
2013-02-03 21:55:00,19.0,13.3,29.81,North,0,0.0,0.0,78,0.00,,,0.00,VWS V14.01,2013-02-04 02:55:00,
2013-02-03 22:00:00,19.1,13.4,29.80,North,0,0.0,0.0,78,0.00,,,0.00,VWS V14.01,2013-02-04 03:00:00,
2013-02-03 22:05:00,19.3,13.6,29.80,North,0,0.0,0.0,78,0.00,,,0.00,VWS V14.01,2013-02-04 03:05:00,
2013-02-03 22:10:00,19.3,13.6,29.80,North,0,0.0,0.0,78,0.00,,,0.00,VWS V14.01,2013-02-04 03:10:00,
2013-02-03 22:15:00,19.3,13.9,29.80,North,0,0.0,0.0,79,0.00,,,0.00,VWS V14.01,2013-02-04 03:15:00,
2013-02-03 22:20:00,19.3,14.1,29.80,North,0,0.0,0.0,80,0.00,,,0.00,VWS V14.01,2013-02-04 03:20:00,
2013-02-03 22:25:00,19.1,14.0,29.80,North,0,0.0,0.0,80,0.00,,,0.00,VWS V14.01,2013-02-04 03:25:00,
2013-02-03 22:30:00,19.0,13.9,29.79,North,0,0.0,0.0,80,0.00,,,0.00,VWS V14.01,2013-02-04 03:30:00,
2013-02-03 22:35:00,18.8,13.7,29.80,North,0,0.0,0.0,80,0.00,,,0.00,VWS V14.01,2013-02-04 03:35:00,
2013-02-03 22:40:00,18.7,13.6,29.80,ESE,112,0.0,1.0,80,0.00,,,0.00,VWS V14.01,2013-02-04 03:40:00,
2013-02-03 22:45:00,18.6,13.5,29.80,ESE,112,0.0,0.0,80,0.00,,,0.00,VWS V14.01,2013-02-04 03:45:00,
2013-02-03 22:50:00,18.6,13.5,29.80,ESE,112,0.0,0.0,80,0.00,,,0.00,VWS V14.01,2013-02-04 03:50:00,
2013-02-03 22:55:00,18.6,13.5,29.80,ESE,112,0.0,1.0,80,0.00,,,0.00,VWS V14.01,2013-02-04 03:55:00,
2013-02-03 23:00:00,18.6,13.5,29.80,ESE,112,0.0,0.0,80,0.00,,,0.00,VWS V14.01,2013-02-04 04:00:00,
2013-02-03 23:05:00,18.6,13.5,29.80,ESE,112,0.0,0.0,80,0.00,,,0.00,VWS V14.01,2013-02-04 04:05:00,
2013-02-03 23:10:00,18.6,13.5,29.80,ESE,112,1.0,2.0,80,0.00,,,0.00,VWS V14.01,2013-02-04 04:10:00,
2013-02-03 23:15:00,18.6,13.5,29.80,ESE,112,1.0,2.0,80,0.00,,,0.00,VWS V14.01,2013-02-04 04:15:00,
2013-02-03 23:20:00,18.8,13.7,29.80,ESE,112,2.0,3.0,80,0.00,,,0.00,VWS V14.01,2013-02-04 04:20:00,
2013-02-03 23:25:00,18.8,13.7,29.80,ESE,112,1.0,3.0,80,0.00,,,0.00,VWS V14.01,2013-02-04 04:25:00,
2013-02-03 23:30:00,18.7,13.9,29.80,ESE,112,0.0,1.0,81,0.00,,,0.00,VWS V14.01,2013-02-04 04:30:00,
2013-02-03 23:35:00,18.7,13.6,29.80,ESE,112,1.0,2.0,80,0.00,,,0.00,VWS V14.01,2013-02-04 04:35:00,
2013-02-03 23:40:00,18.6,13.5,29.80,ESE,112,1.0,2.0,80,0.00,,,0.00,VWS V14.01,2013-02-04 04:40:00,
2013-02-03 23:45:00,18.6,13.5,29.80,ESE,112,0.0,0.0,80,0.00,,,0.00,VWS V14.01,2013-02-04 04:45:00,
2013-02-03 23:50:00,18.5,13.6,29.79,ESE,112,0.0,0.0,81,0.00,,,0.00,VWS V14.01,2013-02-04 04:50:00,
2013-02-03 23:55:00,18.4,13.6,29.79,ESE,112,0.0,0.0,81,0.00,,,0.00,VWS V14.01,2013-02-04 04:55:00,